Flight Track Log - Related Links

Times and Time Zones

All times are in EDT time to prevent confusion due to time zone crossing. See the ASQ6151 flight status page for this flight to view local times or setup timezone preferences in your user account.

Time Position Orientation Groundspeed Altitude Reporting Facility
EDT Latitude Longitude Course Direction KTS MPH feet Rate Location/Type
Sun 06:18:08 PM 37.2569 -80.0253 300° West 259 298 7,400  Level Washington Center
Sun 06:19:08 PM 37.2958 -80.1033 302° West 269 310 10,000 1,835 Climbing Washington Center
Sun 06:20:09 PM 37.3381 -80.1947 300° West 282 325 11,100 1,289 Climbing Washington Center
Sun 06:21:09 PM 37.3883 -80.2969 302° West 316 364 12,600 1,576 Climbing Washington Center
Sun 06:22:00 PM 37.5185 -80.4771 300° West  Level FlightAware Approximate
Sun 06:22:07 PM 37.4386 -80.4022 301° West 341 392 14,200  Level Washington Center
Sun 06:23:00 PM 37.5563 -80.5604 300° West  Level FlightAware Approximate
Sun 06:23:48 PM 37.5692 -80.5364 321° Northwest 370 426 16,900  Level Indianapolis Center
Sun 06:24:50 PM 37.6650 -80.5789 341° North 372 428 18,400 1,403 Climbing Indianapolis Center
Sun 06:25:52 PM 37.7619 -80.6200 341° North 374 430 19,800 1,452 Climbing Indianapolis Center
Sun 06:26:54 PM 37.8736 -80.6642 343° North 382 440 21,400 1,355 Climbing Indianapolis Center
Sun 06:27:56 PM 37.9767 -80.7033 343° North 387 445 22,600 1,161 Climbing Indianapolis Center
Sun 06:28:58 PM 38.0825 -80.7447 343° North 396 456 23,800 1,258 Climbing Indianapolis Center
Sun 06:30:00 PM 38.1903 -80.7811 345° North 397 457 25,200 1,403 Climbing Indianapolis Center
Sun 06:31:02 PM 38.2956 -80.8092 348° North 393 452 26,700 1,645 Climbing Indianapolis Center
Sun 06:32:04 PM 38.4189 -80.8428 348° North 381 438 28,600 1,548 Climbing Indianapolis Center
Sun 06:33:06 PM 38.5203 -80.8833 343° North 382 440 29,900 1,306 Climbing Indianapolis Center
Sun 06:34:08 PM 38.6186 -80.9272 341° North 378 435 31,300 1,296 Climbing Indianapolis Center
Sun 06:35:11 PM 38.7081 -80.9919 331° Northwest 371 427 32,600 1,248 Climbing Indianapolis Center
Sun 06:36:13 PM 38.7683 -81.0947 307° West 361 415 33,900 677 Climbing Indianapolis Center
Sun 06:37:15 PM 38.8483 -81.2178 310° West 379 436 34,000 48 Climbing Indianapolis Center
Sun 06:38:17 PM 38.9072 -81.3397 302° West 408 470 34,000  Level Indianapolis Center
Sun 06:39:19 PM 38.9578 -81.4742 296° West 421 484 34,000  Level Indianapolis Center
Sun 06:40:21 PM 39.0106 -81.6150 296° West 439 505 34,000  Level Indianapolis Center
Sun 06:41:23 PM 39.0714 -81.7497 300° West 440 506 34,000  Level Indianapolis Center
Sun 06:42:25 PM 39.1561 -81.8989 306° West 433 498 34,000  Level Indianapolis Center
Sun 06:43:27 PM 39.2314 -82.0231 308° West 440 506 34,000 484 Level Indianapolis Center
Sun 06:44:29 PM 39.3117 -82.1425 311° West 441 507 35,000 968 Climbing Indianapolis Center
Sun 06:45:31 PM 39.3983 -82.2511 316° Northwest 434 499 36,000 484 Climbing Indianapolis Center
Sun 06:46:33 PM 39.4850 -82.3614 316° Northwest 432 497 36,000  Level Indianapolis Center
Sun 06:47:35 PM 39.5739 -82.5128 307° West 447 514 36,000  Level Indianapolis Center
Sun 06:48:37 PM 39.6478 -82.6453 306° West 450 518 36,000  Level Indianapolis Center
Sun 06:49:39 PM 39.7192 -82.7778 305° West 446 513 36,000  Level Indianapolis Center
Sun 06:50:42 PM 39.7911 -82.9083 306° West 443 510 36,000  Level Indianapolis Center
Sun 06:51:43 PM 39.8614 -83.0389 305° West 440 506 36,000  Level Indianapolis Center
Sun 06:52:45 PM 39.9314 -83.1694 305° West 439 505 36,000  Level Indianapolis Center
Sun 06:53:47 PM 40.0119 -83.3197 305° West 436 502 36,000  Level Indianapolis Center
Sun 06:54:49 PM 40.0808 -83.4492 305° West 436 502 36,000  Level Indianapolis Center
Sun 06:55:51 PM 40.1486 -83.5783 304° West 433 498 36,000  Level Indianapolis Center
Sun 06:56:53 PM 40.2167 -83.7056 305° West 427 491 36,000  Level Indianapolis Center
Sun 06:57:55 PM 40.2850 -83.8372 304° West 433 498 36,000  Level Indianapolis Center
Sun 06:58:57 PM 40.3556 -83.9700 305° West 439 505 36,000  Level Indianapolis Center
Sun 07:00:00 PM 40.4378 -84.1264 305° West 442 509 36,000 -480 Level Indianapolis Center
Sun 07:01:02 PM 40.5072 -84.2633 304° West 447 514 35,000 -968 Descending Indianapolis Center
Sun 07:02:04 PM 40.5775 -84.4003 304° West 448 516 34,000 -451 Descending Indianapolis Center
Sun 07:03:15 PM 40.6531 -84.5450 305° West 449 517 34,000  Level Chicago Center
Sun 07:04:17 PM 40.7383 -84.7100 304° West 453 521 34,000  Level Chicago Center
Sun 07:05:18 PM 40.8081 -84.8486 304° West 453 521 34,000  Level Chicago Center
Sun 07:06:20 PM 40.8789 -84.9869 304° West 453 521 34,000  Level Chicago Center
Sun 07:07:22 PM 40.9478 -85.1283 303° West 456 525 34,000  Level Chicago Center
Sun 07:08:24 PM 41.0042 -85.2808 296° West 458 527 34,000  Level Chicago Center
Sun 07:09:26 PM 41.0600 -85.4322 296° West 458 527 34,000  Level Chicago Center
Sun 07:10:28 PM 41.1156 -85.5806 296° West 452 520 34,000  Level Chicago Center
Sun 07:11:30 PM 41.1708 -85.7322 296° West 452 520 34,000 -537 Level Chicago Center
Sun 07:12:31 PM 41.2381 -85.9122 296° West 452 520 32,900 -2,341 Descending Chicago Center
Sun 07:13:33 PM 41.2903 -86.0606 295° West 445 512 29,200 -3,097 Descending Chicago Center
Sun 07:14:35 PM 41.3286 -86.2194 288° West 448 516 26,500 -2,371 Descending Chicago Center
Sun 07:15:37 PM 41.3689 -86.3778 289° West 452 520 24,300 -2,129 Descending Chicago Center
Sun 07:16:39 PM 41.4081 -86.5328 289° West 444 511 22,100 -2,129 Descending Chicago Center
Sun 07:17:41 PM 41.4419 -86.6706 288° West 394 453 19,900 -2,226 Descending Chicago Center
Sun 07:18:43 PM 41.4797 -86.8217 288° West 377 434 17,500 -2,129 Descending Chicago Center
Sun 07:19:45 PM 41.5103 -86.9511 288° West 369 425 15,500 -1,887 Descending Chicago Center
Sun 07:20:47 PM 41.5414 -87.0750 289° West 357 411 13,600 -1,784 Descending Chicago Center
Sun 07:21:36 PM 41.5667 -87.2000 285° West 349 402 12,200 -1,258 Descending Chicago TRACON
Sun 07:22:51 PM 41.6314 -87.3250 305° West 346 398 11,000 -926 Descending Chicago Center
Sun 07:23:52 PM 41.6933 -87.4250 310° West 350 403 10,100 -488 Descending Chicago Center
Sun 07:24:54 PM 41.7525 -87.5200 310° West 340 391 10,000 -145 Descending Chicago Center
Sun 07:25:56 PM 41.8069 -87.6083 310° West 313 360 9,800 -1,223 Descending Chicago Center
Sun 07:26:37 PM 41.8500 -87.6667 315° West 282 325 7,900 -1,663 Descending Chicago TRACON
Sun 07:27:37 PM 41.9167 -87.7000 340° North 265 305 7,000 -450 Descending Chicago TRACON
Sun 07:28:37 PM 41.9833 -87.7167 349° North 248 285 7,000 -600 Level Chicago TRACON
Sun 07:29:37 PM 42.0500 -87.6833 20° North 251 289 5,800 -1,143 Descending Chicago TRACON
Sun 07:30:43 PM 42.1000 -87.6333 37° Northeast 220 253 4,600 -900 Descending Chicago TRACON
Sun 07:31:37 PM 42.1500 -87.6500 346° North 218 251 4,000 -429 Descending Chicago TRACON
Sun 07:32:07 PM 42.1639 -87.6772 305° West 223 257 4,000 -130 Level Chicago Center
Sun 07:33:09 PM 42.1369 -87.7433 241° Southwest 192 221 3,800 -286 Descending Chicago Center
Sun 07:33:31 PM 42.1167 -87.7500 194° South 188 216 3,600 -795 Descending Chicago TRACON
Sun 07:34:32 PM 42.0833 -87.8000 228° Southwest 190 219 2,700 -893 Descending Chicago TRACON
Sun 07:35:32 PM 42.0333 -87.8500 217° Southwest 160 184 1,800 -800 Descending Chicago TRACON
Sun 07:36:32 PM 42.0167 -87.8833 236° Southwest 147 169 1,100 -700 Descending Chicago TRACON
Sun 07:38:00 PM 41.9817 -87.9067 304° West  Level Estimated

Login

Don't have an account? Register now (free) for customized features, flight alerts, and more!